Ozone Park, New York
Current Conditions -  °F | °C
As of 6:51 AM on Sunday 23 Nov 2014 (Local Time) from KJFK Reporting Station
Broken Clouds Broken Clouds  
Wind Chill: 37°   Ceiling: 11000
Heat Index: 43°   Visibility: 10mi
Dew Point: 25°   Wind: 10mph
Humidity: 49%   Direction: 230°SW
Pressure: 30.21"   Gusts: NA
Location:  40.68°N, 73.84°W
Report Text: KJFK 231151Z 23009KT 10SM FEW080 BKN110 BKN250 06/M04 A3021 RMK AO2 SLP231 T00611039 10067 20061 51008 $
Loading
Personal Weather Stations






























Interactive Weather Map New forecast layout! Learn more

10-Day Weather Forecast

Advertisements
Track Severe Weather on mobile